Time;durP1;ratioP1;P1;durP2;ratioP2;P2;SDS_P1;SDS_P2;PMS_P1;PMS_P2;Temp;Humidity;BMP_temperature;BMP_pressure;BME280_temperature;BME280_humidity;BME280_pressure;Samples;Min_cycle;Max_cycle;Signal;HPM_P1;HPM_P2
2022/05/24 00:01:08;;;;;;;;;0.67;0.67;;;;;20.61;43.97;97725.97;4861765;28;102137;-79
2022/05/24 00:03:35;;;;;;;;;1.00;1.00;;;;;20.59;43.52;97722.66;4862830;28;102932;-79
2022/05/24 00:06:02;;;;;;;;;1.00;1.00;;;;;20.61;43.45;97723.22;4813695;28;102466;-79
2022/05/24 00:08:29;;;;;;;;;1.67;0.67;;;;;20.60;43.92;97721.56;4853651;28;103433;-79
2022/05/24 00:10:57;;;;;;;;;0.67;0.67;;;;;20.58;43.62;97721.06;4853499;28;101626;-79
2022/05/24 00:13:24;;;;;;;;;1.00;1.00;;;;;20.56;44.02;97726.81;4865939;28;102026;-79
2022/05/24 00:15:51;;;;;;;;;1.00;1.00;;;;;20.57;43.77;97716.66;4872007;28;101813;-79
2022/05/24 00:18:20;;;;;;;;;0.33;0.33;;;;;20.57;44.13;97725.72;4844883;28;103663;-79
2022/05/24 00:20:52;;;;;;;;;0.67;0.67;;;;;20.57;43.53;97725.72;4871507;28;101817;-79
2022/05/24 00:23:20;;;;;;;;;2.00;2.00;;;;;20.57;43.96;97733.13;4863508;28;102358;-78
2022/05/24 00:25:50;;;;;;;;;1.33;1.33;;;;;20.56;43.49;97720.50;4865244;28;109106;-79
2022/05/24 00:28:17;;;;;;;;;0.67;0.67;;;;;20.57;44.00;97714.72;4869795;28;103446;-78
2022/05/24 00:30:45;;;;;;;;;0.67;0.67;;;;;20.58;43.98;97715.56;4867553;28;101900;-78
2022/05/24 00:33:13;;;;;;;;;0.67;0.67;;;;;20.58;44.01;97712.81;4845159;28;103524;-78
2022/05/24 00:35:41;;;;;;;;;0.67;0.67;;;;;20.57;44.13;97714.72;4867615;28;103177;-78
2022/05/24 00:38:09;;;;;;;;;0.67;0.67;;;;;20.58;43.91;97710.84;4850070;28;103535;-76
2022/05/24 00:40:45;;;;;;;;;0.67;0.67;;;;;20.57;43.98;97702.94;4840247;28;102614;-79
2022/05/24 00:43:32;;;;;;;;;0.67;0.67;;;;;20.56;43.75;97696.59;4845327;28;101772;-79
2022/05/24 00:46:04;;;;;;;;;1.33;1.33;;;;;20.55;43.88;97705.13;4836415;28;102121;-78
2022/05/24 00:48:37;;;;;;;;;1.00;1.00;;;;;20.56;44.04;97704.03;4835527;28;103008;-79
2022/05/24 00:51:06;;;;;;;;;1.67;1.67;;;;;20.56;43.92;97704.03;4851068;28;101786;-79
2022/05/24 00:53:37;;;;;;;;;1.67;1.67;;;;;20.56;43.85;97701.28;4829542;28;104062;-79
2022/05/24 00:56:14;;;;;;;;;1.00;1.00;;;;;20.53;43.78;97702.69;4850440;28;102126;-79
2022/05/24 00:58:55;;;;;;;;;1.00;1.00;;;;;20.54;43.94;97706.22;4830942;28;107956;-78
2022/05/24 01:01:28;;;;;;;;;1.67;1.67;;;;;20.54;44.09;97695.25;4849309;28;102207;-78
2022/05/24 01:03:55;;;;;;;;;1.67;1.67;;;;;20.55;43.67;97700.44;4835910;28;103666;-79
2022/05/24 01:06:23;;;;;;;;;1.00;1.00;;;;;20.55;43.82;97691.38;4854857;28;102249;-78
2022/05/24 01:08:50;;;;;;;;;0.67;0.67;;;;;20.55;43.90;97694.13;4846885;28;103627;-79
2022/05/24 01:11:17;;;;;;;;;0.00;0.00;;;;;20.54;43.74;97693.31;4810804;28;102059;-78
2022/05/24 01:13:44;;;;;;;;;1.67;0.67;;;;;20.54;43.69;97687.00;4816928;28;101927;-78
2022/05/24 01:16:11;;;;;;;;;0.67;0.67;;;;;20.53;43.52;97682.63;4857449;28;102212;-79
2022/05/24 01:18:39;;;;;;;;;1.00;1.00;;;;;20.54;44.01;97678.75;4853537;28;108101;-79
2022/05/24 01:21:08;;;;;;;;;1.00;1.00;;;;;20.53;44.05;97677.13;4860497;28;101743;-79
2022/05/24 01:23:41;;;;;;;;;0.67;0.67;;;;;20.53;43.78;97675.22;4870366;28;103082;-79
2022/05/24 01:26:13;;;;;;;;;0.67;0.67;;;;;20.54;44.09;97676.00;4868176;28;101841;-79
2022/05/24 01:28:45;;;;;;;;;2.00;2.00;;;;;20.53;43.99;97674.41;4868890;28;108190;-79
2022/05/24 01:31:13;;;;;;;;;2.67;1.67;;;;;20.52;43.92;97670.81;4847822;28;101857;-78
2022/05/24 01:36:26;;;;;;;;;1.00;1.00;;;;;20.53;43.61;97666.16;4869007;28;101880;-79
2022/05/24 01:38:55;;;;;;;;;0.67;0.67;;;;;20.53;43.73;97663.41;4858392;28;102970;-79
2022/05/24 01:41:40;;;;;;;;;1.67;1.67;;;;;20.53;43.77;97663.41;4848452;28;103811;-78
2022/05/24 01:44:08;;;;;;;;;2.00;2.00;;;;;20.52;44.02;97661.75;4847684;28;103362;-79
2022/05/24 01:46:44;;;;;;;;;1.67;0.67;;;;;20.53;43.76;97646.94;4837370;28;103599;-79
2022/05/24 01:49:23;;;;;;;;;0.67;0.67;;;;;20.52;43.83;97648.03;4868647;28;108703;-79
2022/05/24 01:52:12;;;;;;;;;2.00;1.67;;;;;20.51;43.84;97635.41;4853171;28;103329;-78
2022/05/24 01:54:41;;;;;;;;;2.00;1.00;;;;;20.52;43.70;97637.03;4859214;28;103610;-79
2022/05/24 01:57:26;;;;;;;;;0.67;0.67;;;;;20.52;43.79;97631.56;4860567;28;101795;-79
2022/05/24 01:59:53;;;;;;;;;2.00;2.00;;;;;20.52;43.84;97634.28;4833626;28;108378;-79
2022/05/24 02:02:20;;;;;;;;;1.67;1.67;;;;;20.52;43.94;97628.81;4851782;28;102001;-79
2022/05/24 02:04:48;;;;;;;;;1.67;1.00;;;;;20.52;43.96;97623.31;4873891;28;102256;-78
2022/05/24 02:07:18;;;;;;;;;0.67;0.67;;;;;20.51;44.02;97624.41;4871550;28;101865;-79
2022/05/24 02:09:48;;;;;;;;;3.00;2.00;;;;;20.50;43.75;97626.34;4870606;28;103477;-79
2022/05/24 02:12:18;;;;;;;;;2.00;1.00;;;;;20.51;44.00;97624.41;4870665;28;101809;-78
2022/05/24 02:14:52;;;;;;;;;0.67;0.67;;;;;20.51;44.06;97627.16;4873151;28;102239;-78
2022/05/24 02:17:28;;;;;;;;;1.67;1.67;;;;;20.49;43.71;97621.94;4875187;28;101746;-79
2022/05/24 02:19:56;;;;;;;;;1.33;1.00;;;;;20.51;43.74;97621.66;4852255;28;103380;-79
2022/05/24 02:22:25;;;;;;;;;1.67;1.67;;;;;20.49;43.92;97625.50;4871896;28;102332;-79
2022/05/24 02:24:58;;;;;;;;;1.00;1.00;;;;;20.51;43.62;97632.66;4872560;28;102033;-79
2022/05/24 02:27:26;;;;;;;;;0.67;0.67;;;;;20.48;43.77;97623.91;4872254;28;101948;-79
2022/05/24 02:29:53;;;;;;;;;2.00;2.00;;;;;20.49;43.74;97624.69;4869862;28;103443;-79
2022/05/24 02:32:20;;;;;;;;;0.00;0.00;;;;;20.48;43.64;97621.16;4869163;28;102052;-78
2022/05/24 02:34:47;;;;;;;;;0.33;0.33;;;;;20.48;43.96;97623.06;4863055;28;102131;-79
2022/05/24 02:37:15;;;;;;;;;0.33;0.33;;;;;20.47;43.52;97621.44;4867771;28;102050;-78
2022/05/24 02:42:27;;;;;;;;;0.67;0.67;;;;;20.47;44.05;97622.25;4868052;28;102135;-79
2022/05/24 02:44:55;;;;;;;;;2.00;2.00;;;;;20.48;44.14;97625.81;4829950;28;103095;-79
2022/05/24 02:47:22;;;;;;;;;0.00;0.00;;;;;20.47;43.49;97621.44;4861229;28;102701;-79
2022/05/24 02:49:49;;;;;;;;;1.33;0.67;;;;;20.45;43.70;97618.13;4856315;28;103328;-79
2022/05/24 02:52:16;;;;;;;;;1.33;1.33;;;;;20.47;43.92;97615.94;4869507;28;101763;-79
2022/05/24 02:54:43;;;;;;;;;1.00;1.00;;;;;20.45;44.04;97616.22;4875688;28;101793;-79
2022/05/24 02:57:11;;;;;;;;;0.67;0.67;;;;;20.45;43.78;97613.47;4868534;28;102124;-79
2022/05/24 02:59:38;;;;;;;;;0.67;0.67;;;;;20.45;43.98;97621.72;4871328;28;103354;-79
2022/05/24 03:02:09;;;;;;;;;0.67;0.67;;;;;20.45;43.74;97613.47;4867473;28;101696;-79
2022/05/24 03:04:37;;;;;;;;;0.67;0.67;;;;;20.46;44.00;97604.13;4871795;28;102064;-79
2022/05/24 03:09:50;;;;;;;;;0.33;0.33;;;;;20.45;43.90;97605.22;4867860;28;108089;-79
2022/05/24 03:15:04;;;;;;;;;0.67;0.67;;;;;20.43;44.10;97598.41;4843915;28;102564;-79
2022/05/24 03:17:33;;;;;;;;;0.33;0.33;;;;;20.44;43.89;97603.59;4854551;28;102055;-79
2022/05/24 03:20:02;;;;;;;;;1.33;1.00;;;;;20.45;43.91;97596.16;4826443;28;104499;-79
2022/05/24 03:22:29;;;;;;;;;1.00;0.67;;;;;20.45;43.59;97597.00;4868177;28;102302;-79
2022/05/24 03:24:56;;;;;;;;;0.00;0.00;;;;;20.43;43.77;97593.72;4873487;28;102295;-79
2022/05/24 03:27:24;;;;;;;;;1.00;1.00;;;;;20.44;44.14;97592.59;4868117;28;103016;-79
2022/05/24 03:29:51;;;;;;;;;1.00;1.00;;;;;20.40;44.02;97582.47;4868865;28;103506;-79
2022/05/24 03:32:18;;;;;;;;;0.67;0.67;;;;;20.44;44.08;97603.59;4869291;28;103215;-78
2022/05/24 03:34:45;;;;;;;;;0.67;0.67;;;;;20.43;43.97;97601.16;4872608;28;102449;-77
2022/05/24 03:37:13;;;;;;;;;0.67;0.67;;;;;20.42;44.01;97608.56;4855302;28;102156;-79
2022/05/24 03:39:40;;;;;;;;;1.00;1.00;;;;;20.43;43.92;97609.38;4866705;28;104403;-79
2022/05/24 03:42:07;;;;;;;;;0.67;0.67;;;;;20.42;43.89;97608.56;4846620;28;102863;-79
2022/05/24 03:44:35;;;;;;;;;1.00;1.00;;;;;20.41;44.14;97606.91;4854091;28;101779;-79
2022/05/24 03:47:04;;;;;;;;;1.00;1.00;;;;;20.42;43.67;97616.81;4854297;28;102481;-79
2022/05/24 03:49:31;;;;;;;;;1.33;1.33;;;;;20.42;43.77;97619.56;4849591;28;103469;-79
2022/05/24 03:51:58;;;;;;;;;0.67;0.67;;;;;20.42;43.82;97626.97;4836440;28;101806;-79
2022/05/24 03:54:25;;;;;;;;;1.33;1.00;;;;;20.41;43.76;97606.09;4855598;28;101762;-79
2022/05/24 03:59:38;;;;;;;;;0.67;0.00;;;;;20.41;43.79;97606.09;4848559;28;103765;-79
2022/05/24 04:02:05;;;;;;;;;0.67;0.67;;;;;20.41;43.64;97601.44;4849025;28;101782;-79
2022/05/24 04:04:32;;;;;;;;;0.67;0.67;;;;;20.40;44.03;97599.78;4853324;28;101898;-79
2022/05/24 04:06:59;;;;;;;;;1.00;1.00;;;;;20.40;43.70;97605.28;4854842;28;102089;-79
2022/05/24 04:09:27;;;;;;;;;1.00;1.00;;;;;20.40;43.74;97610.75;4848400;28;103535;-79
2022/05/24 04:11:54;;;;;;;;;1.00;1.00;;;;;20.39;43.85;97602.84;4843909;28;102030;-79
2022/05/24 04:14:21;;;;;;;;;1.00;1.00;;;;;20.40;43.74;97615.44;4855036;28;103565;-79
2022/05/24 04:16:48;;;;;;;;;1.00;1.00;;;;;20.40;43.87;97627.25;4859938;28;101778;-78
2022/05/24 04:19:15;;;;;;;;;0.67;0.67;;;;;20.41;43.71;97634.38;4856023;28;103384;-79
2022/05/24 04:21:43;;;;;;;;;1.00;1.00;;;;;20.41;43.54;97637.13;4858067;28;102004;-79
2022/05/24 04:24:10;;;;;;;;;1.00;1.00;;;;;20.41;43.91;97639.88;4857160;28;102039;-79
2022/05/24 04:26:37;;;;;;;;;1.33;1.33;;;;;20.39;43.66;97642.09;4859960;28;102132;-79
2022/05/24 04:29:04;;;;;;;;;0.67;0.67;;;;;20.40;43.49;97649.22;4858328;28;103413;-79
2022/05/24 04:31:31;;;;;;;;;0.67;0.67;;;;;20.40;44.01;97640.97;4856467;28;102865;-79
2022/05/24 04:33:58;;;;;;;;;1.00;1.00;;;;;20.40;43.87;97649.22;4857514;28;101758;-79
2022/05/24 04:36:25;;;;;;;;;0.00;0.00;;;;;20.41;43.67;97637.13;4857194;28;101896;-79
2022/05/24 04:38:53;;;;;;;;;1.00;1.00;;;;;20.38;43.51;97643.19;4851255;28;103691;-79
2022/05/24 04:44:06;;;;;;;;;1.33;1.33;;;;;20.39;43.42;97647.59;4854182;28;101706;-79
2022/05/24 04:49:20;;;;;;;;;1.33;1.33;;;;;20.36;43.73;97648.16;4845435;28;108120;-79
2022/05/24 04:51:48;;;;;;;;;1.67;1.67;;;;;20.38;43.90;97651.44;4847388;28;102586;-79
2022/05/24 04:54:15;;;;;;;;;1.67;1.67;;;;;20.38;43.40;97651.44;4855039;28;103343;-79
2022/05/24 04:56:42;;;;;;;;;1.33;1.33;;;;;20.38;43.81;97661.59;4853348;28;102941;-79
2022/05/24 04:59:09;;;;;;;;;3.33;2.00;;;;;20.36;43.57;97653.63;4849354;28;103594;-79
2022/05/24 05:01:36;;;;;;;;;1.67;1.67;;;;;20.36;44.12;97650.91;4848409;28;102231;-80
2022/05/24 05:04:03;;;;;;;;;2.00;2.00;;;;;20.38;43.62;97653.38;4853238;28;102063;-79
2022/05/24 05:06:30;;;;;;;;;2.00;1.67;;;;;20.34;43.76;97644.88;4855085;28;102256;-79
2022/05/24 05:08:57;;;;;;;;;3.00;2.00;;;;;20.36;43.73;97645.41;4846912;28;103372;-79
2022/05/24 05:11:24;;;;;;;;;0.67;0.67;;;;;20.36;43.72;97648.16;4855961;28;101722;-80
2022/05/24 05:13:51;;;;;;;;;1.67;1.67;;;;;20.36;43.90;97664.63;4855591;28;101675;-79
2022/05/24 05:16:18;;;;;;;;;1.00;0.67;;;;;20.37;43.62;97665.44;4859558;28;101746;-79
2022/05/24 05:18:46;;;;;;;;;1.67;1.00;;;;;20.34;43.82;97664.09;4861935;28;103659;-80
2022/05/24 05:21:13;;;;;;;;;1.00;1.00;;;;;20.36;43.98;97656.38;4860161;28;101879;-80
2022/05/24 05:23:40;;;;;;;;;0.67;0.67;;;;;20.36;43.70;97664.63;4842993;28;102059;-79
2022/05/24 05:26:07;;;;;;;;;1.00;1.00;;;;;20.35;43.67;97662.97;4853340;28;101924;-80
2022/05/24 05:28:34;;;;;;;;;0.67;0.67;;;;;20.35;43.88;97673.97;4851864;28;103348;-79
2022/05/24 05:31:16;;;;;;;;;0.67;0.67;;;;;20.34;44.19;97671.53;4854594;28;101801;-80
2022/05/24 05:33:44;;;;;;;;;0.67;0.67;;;;;20.34;43.66;97666.84;4846899;28;103365;-80
2022/05/24 05:36:11;;;;;;;;;1.33;0.67;;;;;20.33;44.08;97665.22;4857478;28;101797;-79
2022/05/24 05:38:45;;;;;;;;;1.33;1.33;;;;;20.34;44.13;97666.84;4844595;28;103448;-79
2022/05/24 05:41:22;;;;;;;;;0.00;0.00;;;;;20.33;43.79;97665.22;4854474;28;102085;-79
2022/05/24 05:43:49;;;;;;;;;0.33;0.33;;;;;20.34;44.16;97661.38;4832348;28;102234;-78
2022/05/24 05:46:17;;;;;;;;;2.67;0.67;;;;;20.32;44.04;97663.56;4860138;28;102204;-80
2022/05/24 05:48:44;;;;;;;;;1.00;1.00;;;;;20.33;44.22;97667.94;4844012;28;110425;-80
2022/05/24 05:51:13;;;;;;;;;2.00;2.00;;;;;20.33;44.14;97667.94;4853659;28;101992;-79
2022/05/24 05:53:40;;;;;;;;;2.00;1.00;;;;;20.34;44.05;97669.59;4853684;28;101692;-79
2022/05/24 05:56:18;;;;;;;;;1.00;1.00;;;;;20.34;44.14;97672.34;4843282;28;101666;-80
2022/05/24 05:58:45;;;;;;;;;1.67;0.67;;;;;20.34;43.95;97669.59;4856162;28;107886;-80
2022/05/24 06:01:20;;;;;;;;;2.00;2.00;;;;;20.33;44.25;97665.22;4852103;28;101845;-79
2022/05/24 06:03:47;;;;;;;;;1.67;1.00;;;;;20.34;43.87;97668.78;4838939;28;102076;-80
2022/05/24 06:06:16;;;;;;;;;1.00;1.00;;;;;20.34;43.87;97672.34;4858067;28;102105;-80
2022/05/24 06:08:43;;;;;;;;;1.33;1.33;;;;;20.34;44.14;97677.00;4856783;28;108029;-79
2022/05/24 06:11:10;;;;;;;;;1.67;1.67;;;;;20.32;44.23;97679.22;4858579;28;101860;-80
2022/05/24 06:13:37;;;;;;;;;0.67;0.67;;;;;20.32;44.09;97682.78;4860135;28;102103;-79
2022/05/24 06:16:04;;;;;;;;;0.67;0.67;;;;;20.33;44.00;97689.91;4858343;28;102053;-79
2022/05/24 06:18:32;;;;;;;;;0.67;0.67;;;;;20.32;44.21;97685.53;4862582;28;103415;-79
2022/05/24 06:20:59;;;;;;;;;1.00;1.00;;;;;20.32;44.11;97684.69;4860390;28;103581;-79
2022/05/24 06:23:26;;;;;;;;;0.67;0.67;;;;;20.33;44.06;97683.59;4852822;28;101812;-79
2022/05/24 06:25:53;;;;;;;;;1.00;1.00;;;;;20.33;44.10;97689.09;4848881;28;101981;-79
2022/05/24 06:28:20;;;;;;;;;1.00;1.00;;;;;20.33;43.97;97689.91;4832719;28;103439;-78
2022/05/24 06:30:47;;;;;;;;;1.67;1.67;;;;;20.33;44.17;97684.44;4841458;28;101812;-79
2022/05/24 06:33:14;;;;;;;;;1.00;1.00;;;;;20.33;44.28;97689.09;4849045;28;104144;-79
2022/05/24 06:35:43;;;;;;;;;1.67;1.33;;;;;20.34;43.87;97686.06;4838708;28;102053;-79
2022/05/24 06:38:10;;;;;;;;;1.67;1.67;;;;;20.33;43.68;97689.91;4832674;28;103562;-79
2022/05/24 06:40:38;;;;;;;;;1.00;1.00;;;;;20.34;44.08;97699.81;4852855;28;102062;-79
2022/05/24 06:43:05;;;;;;;;;0.67;0.00;;;;;20.35;43.91;97689.66;4849802;28;103545;-80
2022/05/24 06:45:32;;;;;;;;;0.00;0.00;;;;;20.33;44.29;97689.91;4847298;28;101814;-80
2022/05/24 06:48:00;;;;;;;;;1.33;1.33;;;;;20.34;43.91;97693.50;4857355;28;103873;-79
2022/05/24 06:50:27;;;;;;;;;0.67;0.67;;;;;20.33;43.97;97687.16;4856095;28;101716;-79
2022/05/24 06:52:54;;;;;;;;;0.67;0.00;;;;;20.33;43.89;97692.66;4861387;28;101602;-79
2022/05/24 06:55:22;;;;;;;;;1.33;1.33;;;;;20.33;43.96;97698.16;4861028;28;101742;-79
2022/05/24 06:57:49;;;;;;;;;0.67;0.67;;;;;20.34;44.12;97696.22;4858012;28;103505;-79
2022/05/24 07:03:03;;;;;;;;;0.67;0.67;;;;;20.35;44.20;97700.63;4850301;28;101830;-79
2022/05/24 07:05:31;;;;;;;;;0.67;0.67;;;;;20.35;43.93;97695.13;4860498;28;102879;-79
2022/05/24 07:08:00;;;;;;;;;0.67;0.67;;;;;20.33;44.09;97700.91;4857116;28;103466;-79
2022/05/24 07:10:31;;;;;;;;;1.00;1.00;;;;;20.34;43.90;97691.56;4845989;28;101640;-79
2022/05/24 07:13:08;;;;;;;;;1.00;1.00;;;;;20.34;44.24;97702.53;4843104;28;101803;-79
2022/05/24 07:15:35;;;;;;;;;0.33;0.33;;;;;20.35;43.89;97711.59;4857074;28;102045;-79
2022/05/24 07:18:03;;;;;;;;;0.67;0.67;;;;;20.35;44.10;97706.13;4858345;28;103358;-79
2022/05/24 07:20:33;;;;;;;;;1.00;0.67;;;;;20.34;44.19;97710.78;4835272;28;105331;-79
2022/05/24 07:23:07;;;;;;;;;0.67;0.67;;;;;20.35;43.88;97712.41;4857131;28;101971;-79
2022/05/24 07:25:35;;;;;;;;;0.67;0.67;;;;;20.34;43.73;97705.28;4857185;28;101864;-79
2022/05/24 07:28:03;;;;;;;;;1.00;1.00;;;;;20.36;44.16;97700.31;4836095;28;103382;-80
2022/05/24 07:30:30;;;;;;;;;0.67;0.67;;;;;20.36;44.07;97703.06;4845235;28;102105;-79
2022/05/24 07:32:58;;;;;;;;;0.67;0.67;;;;;20.39;44.17;97696.19;4846631;28;101672;-79
2022/05/24 07:35:25;;;;;;;;;1.67;1.00;;;;;20.38;44.08;97694.56;4860494;28;101928;-79
2022/05/24 07:37:52;;;;;;;;;0.67;0.67;;;;;20.37;43.95;97699.22;4858908;28;103438;-78
2022/05/24 07:45:53;;;;;;;;;0.67;0.67;;;;;20.40;44.02;97693.16;4859702;28;109602;-80
2022/05/24 07:48:20;;;;;;;;;0.67;0.67;;;;;20.39;43.79;97694.28;4852681;28;108456;-79
2022/05/24 07:50:48;;;;;;;;;0.00;0.00;;;;;20.38;43.94;97698.13;4855684;28;101718;-79
2022/05/24 07:53:15;;;;;;;;;1.67;0.67;;;;;20.39;43.87;97697.03;4860026;28;101864;-79
2022/05/24 07:55:44;;;;;;;;;0.67;0.67;;;;;20.40;44.10;97704.13;4863793;28;101758;-79
2022/05/24 07:58:12;;;;;;;;;1.00;1.00;;;;;20.40;43.98;97695.06;4849760;28;103415;-79
2022/05/24 08:00:39;;;;;;;;;0.67;0.67;;;;;20.42;43.68;97688.19;4855142;28;101670;-79
2022/05/24 08:03:06;;;;;;;;;0.00;0.00;;;;;20.43;43.83;97698.09;4848332;28;108552;-79
2022/05/24 08:05:34;;;;;;;;;2.00;2.00;;;;;20.41;43.88;97700.28;4856544;28;101833;-79
2022/05/24 08:08:01;;;;;;;;;0.67;0.67;;;;;20.43;44.03;97697.25;4853741;28;103484;-79
2022/05/24 08:10:29;;;;;;;;;1.00;1.00;;;;;20.43;44.08;97687.09;4851892;28;102028;-79
2022/05/24 08:12:57;;;;;;;;;2.00;1.00;;;;;20.42;44.01;97693.69;4836510;28;102207;-79
2022/05/24 08:15:25;;;;;;;;;1.67;0.67;;;;;20.43;43.68;97700.84;4856879;28;101955;-78
2022/05/24 08:17:52;;;;;;;;;0.67;0.67;;;;;20.43;43.81;97692.59;4841775;28;103366;-78
2022/05/24 08:20:19;;;;;;;;;1.33;0.67;;;;;20.44;43.85;97696.16;4858860;28;101907;-79
2022/05/24 08:22:47;;;;;;;;;0.67;0.67;;;;;20.45;43.86;97701.34;4855897;28;102152;-79
2022/05/24 08:25:14;;;;;;;;;1.67;1.67;;;;;20.44;43.71;97699.69;4856797;28;101871;-79
2022/05/24 08:27:41;;;;;;;;;1.00;1.00;;;;;20.45;43.91;97689.53;4856769;28;103633;-79
2022/05/24 08:30:11;;;;;;;;;0.00;0.00;;;;;20.45;43.70;97695.84;4860088;28;101938;-79
2022/05/24 08:32:38;;;;;;;;;2.00;1.33;;;;;20.46;43.98;97703.00;4851110;28;102119;-79
2022/05/24 08:35:05;;;;;;;;;1.33;1.33;;;;;20.47;43.54;97703.81;4856415;28;102026;-79
2022/05/24 08:37:37;;;;;;;;;1.00;1.00;;;;;20.48;43.66;97694.47;4849798;28;104349;-79
2022/05/24 08:40:05;;;;;;;;;1.33;1.33;;;;;20.48;43.62;97703.53;4821428;28;102076;-79
2022/05/24 08:43:04;;;;;;;;;0.67;0.67;;;;;20.47;43.60;97699.16;4841659;28;102819;-79
2022/05/24 08:48:41;;;;;;;;;0.00;0.00;;;;;20.48;43.72;97700.78;4814734;28;108463;-79
2022/05/24 08:51:21;;;;;;;;;0.67;0.67;;;;;20.48;44.17;97710.97;4800610;28;101940;-79
2022/05/24 08:53:50;;;;;;;;;0.00;0.00;;;;;20.47;43.77;97701.91;4832785;28;102058;-79
2022/05/24 08:56:18;;;;;;;;;1.67;1.67;;;;;20.48;43.80;97717.28;4834487;28;101978;-80
2022/05/24 08:58:52;;;;;;;;;1.00;1.00;;;;;20.49;43.63;97718.88;4840195;28;103783;-79
2022/05/24 09:01:27;;;;;;;;;0.67;0.67;;;;;20.49;44.16;97729.88;4821211;28;101976;-79
2022/05/24 09:03:54;;;;;;;;;1.33;0.67;;;;;20.49;43.72;97718.88;4837912;28;101986;-79
2022/05/24 09:06:43;;;;;;;;;0.67;0.67;;;;;20.49;43.67;97718.88;4823314;29;101979;-79
2022/05/24 09:09:35;;;;;;;;;0.33;0.33;;;;;20.51;43.64;97726.03;4830914;28;108124;-79
2022/05/24 09:12:17;;;;;;;;;0.00;0.00;;;;;20.51;43.75;97723.28;4838494;28;103426;-79
2022/05/24 09:15:07;;;;;;;;;0.67;0.67;;;;;20.48;43.80;97717.28;4837568;28;102452;-79
2022/05/24 09:17:54;;;;;;;;;1.00;1.00;;;;;20.52;43.57;97728.50;4834407;29;101775;-79
2022/05/24 09:20:40;;;;;;;;;0.67;0.67;;;;;20.52;44.06;97727.69;4836186;28;108379;-79
2022/05/24 09:23:36;;;;;;;;;1.00;1.00;;;;;20.52;43.78;97733.16;4832912;28;101896;-79
2022/05/24 09:26:06;;;;;;;;;0.67;0.67;;;;;20.51;44.11;97728.78;4813141;28;101894;-79
2022/05/24 09:28:55;;;;;;;;;1.00;1.00;;;;;20.51;44.20;97721.34;4820434;28;101827;-79
2022/05/24 09:31:41;;;;;;;;;1.33;1.00;;;;;20.52;44.11;97727.69;4834752;28;108150;-79
2022/05/24 09:34:08;;;;;;;;;2.00;2.00;;;;;20.51;44.03;97718.63;4831988;28;101743;-79
2022/05/24 09:36:51;;;;;;;;;0.67;0.67;;;;;20.52;44.17;97730.44;4833242;28;101782;-79
2022/05/24 09:39:26;;;;;;;;;0.00;0.00;;;;;20.52;43.73;97717.50;4807308;28;101900;-79
2022/05/24 09:42:27;;;;;;;;;1.67;1.67;;;;;20.53;43.96;97721.09;4840344;28;109059;-79
2022/05/24 09:45:00;;;;;;;;;0.67;0.67;;;;;20.54;44.08;97728.19;4826682;28;101993;-79
2022/05/24 09:47:41;;;;;;;;;0.67;0.67;;;;;20.54;43.86;97730.94;4842601;28;102138;-79
2022/05/24 09:50:14;;;;;;;;;1.00;0.67;;;;;20.54;43.69;97736.44;4839654;28;102020;-79
2022/05/24 09:53:02;;;;;;;;;0.67;0.67;;;;;20.53;43.88;97730.16;4839347;28;103458;-79
2022/05/24 09:55:30;;;;;;;;;0.67;0.67;;;;;20.53;44.10;97741.13;4827122;28;101811;-79
2022/05/24 09:58:18;;;;;;;;;1.00;1.00;;;;;20.54;44.10;97725.44;4825115;28;102039;-79
2022/05/24 10:00:53;;;;;;;;;0.67;0.67;;;;;20.53;43.71;97732.06;4840845;28;101968;-79
2022/05/24 10:03:27;;;;;;;;;1.00;0.67;;;;;20.54;44.11;97730.94;4835089;28;108360;-79
2022/05/24 10:06:12;;;;;;;;;0.67;0.00;;;;;20.53;44.00;97723.84;4834625;28;104565;-78
2022/05/24 10:08:43;;;;;;;;;0.67;0.67;;;;;20.53;43.69;97721.09;4826311;29;102957;-79
2022/05/24 10:11:27;;;;;;;;;0.00;0.00;;;;;20.52;43.94;97709.28;4838527;28;102189;-79
2022/05/24 10:14:13;;;;;;;;;0.67;0.67;;;;;20.53;44.09;97718.34;4837489;28;108142;-78
2022/05/24 10:16:47;;;;;;;;;0.67;0.67;;;;;20.53;44.04;97723.84;4822838;28;102144;-79
2022/05/24 10:19:45;;;;;;;;;0.67;0.67;;;;;20.53;44.04;97724.66;4832700;28;101895;-79
2022/05/24 10:22:31;;;;;;;;;0.67;0.67;;;;;20.53;44.18;97718.34;4844147;28;101744;-79
2022/05/24 10:25:20;;;;;;;;;1.33;0.67;;;;;20.53;43.88;97723.84;4847913;28;108178;-80
2022/05/24 10:27:53;;;;;;;;;1.00;1.00;;;;;20.52;43.93;97717.50;4845587;28;101790;-79
2022/05/24 10:30:50;;;;;;;;;0.00;0.00;;;;;20.53;43.83;97715.59;4839909;28;101691;-79
2022/05/24 10:39:30;;;;;;;;;1.67;0.33;;;;;20.52;44.22;97717.50;4844361;28;102116;-79
2022/05/24 10:41:57;;;;;;;;;1.00;1.00;;;;;20.52;44.11;97722.19;4821175;29;101784;-79
2022/05/24 10:44:30;;;;;;;;;1.00;1.00;;;;;20.52;43.87;97728.50;4836529;28;101829;-76
2022/05/24 10:47:06;;;;;;;;;0.67;0.67;;;;;20.53;44.18;97723.84;4834445;29;103525;-79
2022/05/24 10:49:46;;;;;;;;;2.67;2.00;;;;;20.53;44.25;97730.16;4820766;28;101693;-79
2022/05/24 10:52:34;;;;;;;;;0.67;0.67;;;;;20.53;44.41;97735.63;4829112;29;101805;-79
2022/05/24 10:55:17;;;;;;;;;0.67;0.67;;;;;20.52;43.86;97742.22;4828061;28;102008;-79
2022/05/24 10:57:59;;;;;;;;;1.00;1.00;;;;;20.52;44.09;97731.25;4828580;28;103033;-79
2022/05/24 11:00:35;;;;;;;;;1.67;0.67;;;;;20.53;44.21;97740.31;4831717;29;101940;-79
2022/05/24 11:03:10;;;;;;;;;0.00;0.00;;;;;20.52;44.04;97739.50;4831009;29;102153;-79
2022/05/24 11:05:42;;;;;;;;;0.00;0.00;;;;;20.52;44.02;97739.50;4815195;29;102470;-79
2022/05/24 11:08:33;;;;;;;;;1.00;1.00;;;;;20.52;43.99;97741.41;4812483;29;105562;-79
2022/05/24 11:11:04;;;;;;;;;0.33;0.33;;;;;20.53;44.17;97745.81;4830244;28;102078;-79
2022/05/24 11:13:53;;;;;;;;;0.33;0.33;;;;;20.54;43.84;97758.41;4834023;28;102254;-79
2022/05/24 11:16:33;;;;;;;;;0.00;0.00;;;;;20.53;43.94;97745.81;4830237;28;102170;-79
2022/05/24 11:19:01;;;;;;;;;0.00;0.00;;;;;20.54;44.18;97752.91;4816990;28;111369;-79
2022/05/24 11:21:32;;;;;;;;;1.00;1.00;;;;;20.55;44.20;97757.31;4833913;29;101808;-79
2022/05/24 11:24:14;;;;;;;;;0.33;0.33;;;;;20.54;43.78;97750.16;4799814;29;101826;-79
2022/05/24 11:26:47;;;;;;;;;1.00;1.00;;;;;20.54;44.21;97759.22;4815431;29;102115;-80
2022/05/24 11:29:26;;;;;;;;;0.67;0.67;;;;;20.54;44.11;97756.47;4796970;28;103441;-79
2022/05/24 11:31:59;;;;;;;;;0.00;0.00;;;;;20.54;44.19;97748.25;4819845;29;102057;-79
2022/05/24 11:34:54;;;;;;;;;1.00;1.00;;;;;20.55;43.86;97754.56;4821636;28;102159;-79
2022/05/24 11:37:26;;;;;;;;;1.00;1.00;;;;;20.55;44.07;97752.63;4818541;28;102381;-80
2022/05/24 11:39:54;;;;;;;;;1.00;1.00;;;;;20.55;43.97;97752.63;4834119;29;108194;-79
2022/05/24 11:42:42;;;;;;;;;0.67;0.67;;;;;20.55;44.35;97752.63;4832194;28;101716;-79
2022/05/24 11:45:28;;;;;;;;;1.33;1.00;;;;;20.57;44.33;97752.38;4826761;28;101921;-79
2022/05/24 11:48:06;;;;;;;;;0.33;0.33;;;;;20.58;44.00;97743.03;4828590;28;101797;-79
2022/05/24 11:50:33;;;;;;;;;0.67;0.67;;;;;20.57;43.96;97746.88;4832850;28;108562;-79
2022/05/24 11:53:05;;;;;;;;;0.67;0.67;;;;;20.58;44.24;97754.00;4835143;28;101965;-79
2022/05/24 11:55:43;;;;;;;;;0.67;0.67;;;;;20.60;43.92;97746.28;4833538;28;101903;-79
2022/05/24 11:58:19;;;;;;;;;0.67;0.67;;;;;20.60;43.67;97746.28;4832662;28;102056;-79
2022/05/24 12:01:01;;;;;;;;;0.33;0.33;;;;;20.61;43.77;97739.69;4830453;28;103809;-79
2022/05/24 12:09:18;;;;;;;;;1.00;0.67;;;;;20.62;43.84;97744.91;4834467;28;104446;-79
2022/05/24 12:11:45;;;;;;;;;1.00;1.00;;;;;20.63;43.72;97734.72;4816201;28;103476;-79
2022/05/24 12:14:17;;;;;;;;;0.67;0.67;;;;;20.63;43.78;97742.97;4817550;28;101724;-79
2022/05/24 12:17:05;;;;;;;;;0.67;0.67;;;;;20.64;43.69;97730.88;4836922;28;102122;-79
2022/05/24 12:19:40;;;;;;;;;1.00;1.00;;;;;20.65;43.79;97738.00;4801398;28;102868;-79
2022/05/24 12:22:14;;;;;;;;;0.00;0.00;;;;;20.68;43.65;97734.69;4834803;28;103627;-79
2022/05/24 12:24:42;;;;;;;;;2.00;1.00;;;;;20.67;44.13;97731.09;4827049;28;101806;-80
2022/05/24 12:27:31;;;;;;;;;1.00;0.33;;;;;20.69;43.72;97734.41;4833498;28;101892;-79